createdAt,value
2023-04-18T00:02:55.668Z,98679.67
2023-04-18T00:08:03.183Z,98678.88
2023-04-18T00:13:10.569Z,98678.66
2023-04-18T00:18:17.886Z,98677.02
2023-04-18T00:23:28.351Z,98680.86
2023-04-18T00:28:35.479Z,98684.74
2023-04-18T00:33:42.487Z,98686.59
2023-04-18T00:38:49.670Z,98691.56
2023-04-18T00:43:57.413Z,98691.73
2023-04-18T00:49:04.613Z,98691.09
2023-04-18T00:54:13.950Z,98688.58
2023-04-18T00:59:22.569Z,98686.21
2023-04-18T01:04:30.103Z,98685.91
2023-04-18T01:09:37.901Z,98684.36
2023-04-18T01:14:45.187Z,98676.31
2023-04-18T01:19:52.580Z,98674.59
2023-04-18T01:24:59.775Z,98676.46
2023-04-18T01:30:07.344Z,98680.88
2023-04-18T01:35:14.762Z,98676.55
2023-04-18T01:40:21.947Z,98674.42
2023-04-18T01:45:29.153Z,98673.35
2023-04-18T01:50:36.918Z,98679.26
2023-04-18T01:55:44.420Z,98679.03
2023-04-18T02:00:52.465Z,98675.48
2023-04-18T02:05:59.596Z,98675.34
2023-04-18T02:11:07.040Z,98674.23
2023-04-18T02:16:15.113Z,98672.89
2023-04-18T02:21:23.392Z,98671.01
2023-04-18T02:26:30.303Z,98667.56
2023-04-18T02:31:39.219Z,98665.59
2023-04-18T02:36:46.517Z,98670.71
2023-04-18T02:41:53.512Z,98675.13
2023-04-18T02:47:00.924Z,98676.64
2023-04-18T02:52:08.458Z,98678.08
2023-04-18T02:57:15.960Z,98681.16
2023-04-18T03:02:23.384Z,98677.14
2023-04-18T03:07:31.190Z,98678.41
2023-04-18T03:12:38.535Z,98681.00
2023-04-18T03:17:45.693Z,98678.59
2023-04-18T03:22:52.983Z,98676.54
2023-04-18T03:28:00.233Z,98678.75
2023-04-18T03:33:07.429Z,98688.39
2023-04-18T03:38:14.840Z,98688.30
2023-04-18T03:43:22.511Z,98693.84
2023-04-18T03:48:30.447Z,98699.13
2023-04-18T03:53:37.908Z,98703.86
2023-04-18T03:58:45.230Z,98705.23
2023-04-18T04:03:52.807Z,98703.41
2023-04-18T04:09:00.058Z,98705.55
2023-04-18T04:14:07.566Z,98710.82
2023-04-18T04:19:15.341Z,98718.55
2023-04-18T04:24:23.111Z,98724.00
2023-04-18T04:29:30.674Z,98728.28
2023-04-18T04:34:37.731Z,98733.23
2023-04-18T04:39:45.061Z,98733.02
2023-04-18T04:44:53.939Z,98746.73
2023-04-18T04:50:01.433Z,98749.91
2023-04-18T04:55:09.057Z,98756.13
2023-04-18T05:00:21.330Z,98754.80
2023-04-18T05:05:28.448Z,98760.09
2023-04-18T05:10:37.428Z,98764.59
2023-04-18T05:15:44.749Z,98766.30
2023-04-18T05:20:52.178Z,98764.89
2023-04-18T05:25:59.477Z,98764.17
2023-04-18T05:31:06.691Z,98769.38
2023-04-18T05:36:13.957Z,98779.16
2023-04-18T05:41:22.030Z,98781.82
2023-04-18T05:46:29.642Z,98782.03
2023-04-18T05:51:37.061Z,98783.55
2023-04-18T05:56:44.329Z,98788.98
2023-04-18T06:01:51.831Z,98794.67
2023-04-18T06:06:58.854Z,98797.35
2023-04-18T06:12:06.033Z,98802.40
2023-04-18T06:17:14.589Z,98808.64
2023-04-18T06:22:22.064Z,98807.38
2023-04-18T06:27:31.549Z,98810.83
2023-04-18T06:32:39.564Z,98814.97
2023-04-18T06:37:47.078Z,98818.50
2023-04-18T06:42:54.225Z,98827.50
2023-04-18T06:48:01.614Z,98828.52
2023-04-18T06:53:08.792Z,98832.48
2023-04-18T06:58:17.200Z,98833.50
2023-04-18T07:03:24.444Z,98840.95
2023-04-18T07:08:31.591Z,98842.94
2023-04-18T07:13:38.760Z,98845.93
2023-04-18T07:18:45.878Z,98854.30
2023-04-18T07:23:53.387Z,98847.83
2023-04-18T07:29:00.826Z,98848.16
2023-04-18T07:34:09.828Z,98849.06
2023-04-18T07:39:17.449Z,98852.25
2023-04-18T07:44:25.670Z,98861.17
2023-04-18T07:49:32.796Z,98864.54
2023-04-18T07:54:40.807Z,98863.81
2023-04-18T07:59:47.821Z,98861.27
2023-04-18T08:04:56.449Z,98860.61
2023-04-18T08:10:03.763Z,98864.12
2023-04-18T08:15:11.775Z,98866.30
2023-04-18T08:20:19.223Z,98872.19
2023-04-18T08:25:26.516Z,98868.95
2023-04-18T08:30:33.905Z,98876.48
2023-04-18T08:35:42.216Z,98875.75
2023-04-18T08:40:49.156Z,98878.04
2023-04-18T08:46:00.186Z,98875.38
2023-04-18T08:51:07.730Z,98876.26
2023-04-18T08:56:15.068Z,98874.02
2023-04-18T09:01:23.380Z,98877.32
2023-04-18T09:06:30.934Z,98879.04
2023-04-18T09:11:38.462Z,98876.84
2023-04-18T09:16:48.768Z,98874.69
2023-04-18T09:22:01.261Z,98872.16
2023-04-18T09:27:14.649Z,98874.02
2023-04-18T09:32:27.370Z,98871.57
2023-04-18T09:37:34.681Z,98869.59
2023-04-18T09:42:41.802Z,98868.80
2023-04-18T09:47:49.048Z,98871.34
2023-04-18T09:52:56.974Z,98865.25
2023-04-18T09:58:06.289Z,98867.77
2023-04-18T10:03:15.370Z,98868.18
2023-04-18T10:08:23.049Z,98858.45
2023-04-18T10:13:31.358Z,98855.74
2023-04-18T10:18:38.746Z,98859.48
2023-04-18T10:23:49.269Z,98860.45
2023-04-18T10:28:57.507Z,98850.17
2023-04-18T10:34:08.319Z,98851.14
2023-04-18T10:39:23.789Z,98852.58
2023-04-18T10:44:31.130Z,98845.98
2023-04-18T10:49:38.933Z,98838.88
2023-04-18T10:54:49.208Z,98837.16
2023-04-18T10:59:56.261Z,98830.30
2023-04-18T11:05:04.993Z,98823.08
2023-04-18T11:10:12.880Z,98824.18
2023-04-18T11:15:22.100Z,98817.64
2023-04-18T11:20:29.958Z,98815.98
2023-04-18T11:25:37.663Z,98807.77
2023-04-18T11:30:44.779Z,98809.30
2023-04-18T11:35:52.073Z,98807.81
2023-04-18T11:40:59.182Z,98816.89
2023-04-18T11:46:06.837Z,98805.77
2023-04-18T11:51:34.521Z,98809.95
2023-04-18T11:56:47.500Z,98803.45
2023-04-18T12:02:15.468Z,98806.33
2023-04-18T12:07:37.851Z,98806.73
2023-04-18T12:12:49.306Z,98803.73
2023-04-18T12:17:59.327Z,98802.34
2023-04-18T12:23:07.068Z,98802.97
2023-04-18T12:28:17.306Z,98802.27
2023-04-18T12:33:28.066Z,98797.69
2023-04-18T12:38:35.058Z,98793.44
2023-04-18T12:43:42.279Z,98785.11
2023-04-18T12:48:49.614Z,98782.58
2023-04-18T12:53:56.837Z,98791.48
2023-04-18T12:59:04.359Z,98785.11
2023-04-18T13:04:13.251Z,98789.86
2023-04-18T13:09:20.559Z,98788.27
2023-04-18T13:14:28.382Z,98786.87
2023-04-18T13:19:35.612Z,98783.64
2023-04-18T13:24:42.772Z,98781.83
2023-04-18T13:29:49.662Z,98789.93
2023-04-18T13:34:56.886Z,98787.74
2023-04-18T13:40:05.612Z,98782.30
2023-04-18T13:45:13.649Z,98784.74
2023-04-18T13:50:21.070Z,98787.02
2023-04-18T13:55:28.927Z,98791.21
2023-04-18T14:00:36.145Z,98792.81
2023-04-18T14:05:43.502Z,98787.91
2023-04-18T14:10:51.078Z,98787.52
2023-04-18T14:15:58.414Z,98787.20
2023-04-18T14:21:05.810Z,98790.29
2023-04-18T14:26:13.021Z,98788.87
2023-04-18T14:31:20.200Z,98791.23
2023-04-18T14:36:27.765Z,98789.18
2023-04-18T14:41:35.531Z,98790.23
2023-04-18T14:46:43.880Z,98787.79
2023-04-18T14:51:51.225Z,98788.90
2023-04-18T14:56:58.382Z,98788.98
2023-04-18T15:02:05.632Z,98785.59
2023-04-18T15:07:13.323Z,98787.00
2023-04-18T15:12:20.737Z,98787.63
2023-04-18T15:17:28.055Z,98785.75
2023-04-18T15:22:35.251Z,98787.56
2023-04-18T15:27:42.470Z,98787.58
2023-04-18T15:32:49.629Z,98785.21
2023-04-18T15:37:57.783Z,98785.70
2023-04-18T15:43:05.011Z,98787.11
2023-04-18T15:48:13.530Z,98790.02
2023-04-18T15:53:20.816Z,98786.98
2023-04-18T15:58:30.561Z,98785.08
2023-04-18T16:03:38.130Z,98787.29
2023-04-18T16:08:45.296Z,98789.98
2023-04-18T16:13:52.386Z,98789.11
2023-04-18T16:18:59.603Z,98796.52
2023-04-18T16:24:07.204Z,98797.08
2023-04-18T16:29:14.689Z,98793.70
2023-04-18T16:34:22.721Z,98795.67
2023-04-18T16:39:30.587Z,98798.83
2023-04-18T16:44:39.677Z,98800.80
2023-04-18T16:49:48.007Z,98806.70
2023-04-18T16:54:55.171Z,98801.97
2023-04-18T17:00:03.183Z,98805.67
2023-04-18T17:05:11.497Z,98804.68
2023-04-18T17:10:18.642Z,98802.39
2023-04-18T17:15:27.827Z,98802.48
2023-04-18T17:20:36.463Z,98809.80
2023-04-18T17:25:43.827Z,98813.29
2023-04-18T17:30:51.370Z,98816.36
2023-04-18T17:35:58.566Z,98820.79
2023-04-18T17:41:06.954Z,98819.84
2023-04-18T17:46:14.271Z,98822.77
2023-04-18T17:51:21.587Z,98819.92
2023-04-18T17:56:30.827Z,98827.09
2023-04-18T18:01:38.464Z,98830.34
2023-04-18T18:06:54.973Z,98832.54
2023-04-18T18:12:02.956Z,98835.62
2023-04-18T18:17:10.643Z,98833.82
2023-04-18T18:22:18.259Z,98834.84
2023-04-18T18:27:25.793Z,98837.61
2023-04-18T18:32:33.429Z,98838.98
2023-04-18T18:37:41.266Z,98836.67
2023-04-18T18:42:49.767Z,98842.52
2023-04-18T18:47:57.278Z,98837.07
2023-04-18T18:53:06.437Z,98837.87
2023-04-18T18:58:13.566Z,98833.83
2023-04-18T19:03:21.612Z,98835.65
2023-04-18T19:08:29.543Z,98835.34
2023-04-18T19:13:36.990Z,98831.70
2023-04-18T19:18:47.880Z,98831.95
2023-04-18T19:23:55.251Z,98833.52
2023-04-18T19:29:02.783Z,98824.77
2023-04-18T19:34:10.219Z,98822.95
2023-04-18T19:39:17.912Z,98823.52
2023-04-18T19:44:25.465Z,98824.15
2023-04-18T19:49:34.015Z,98822.58
2023-04-18T19:54:41.681Z,98820.82
2023-04-18T19:59:49.069Z,98817.05
2023-04-18T20:04:56.861Z,98815.48
2023-04-18T20:10:04.717Z,98812.10
2023-04-18T20:15:12.584Z,98806.48
2023-04-18T20:20:19.669Z,98803.26
2023-04-18T20:25:26.980Z,98800.49
2023-04-18T20:30:35.178Z,98797.98
2023-04-18T20:35:42.636Z,98796.63
2023-04-18T20:40:53.244Z,98788.45
2023-04-18T20:46:01.303Z,98783.63
2023-04-18T20:51:08.655Z,98781.74
2023-04-18T20:56:16.097Z,98778.42
2023-04-18T21:01:23.548Z,98771.02
2023-04-18T21:06:31.452Z,98768.25
2023-04-18T21:11:38.720Z,98765.18
2023-04-18T21:16:45.844Z,98761.39
2023-04-18T21:21:52.968Z,98754.14
2023-04-18T21:26:59.905Z,98746.34
2023-04-18T21:32:07.050Z,98745.86
2023-04-18T21:37:14.088Z,98739.32
2023-04-18T21:42:20.887Z,98740.19
2023-04-18T21:47:28.453Z,98729.61
2023-04-18T21:52:35.960Z,98726.39
2023-04-18T21:57:43.331Z,98724.48
2023-04-18T22:02:50.926Z,98718.67
2023-04-18T22:07:58.870Z,98718.19
2023-04-18T22:13:06.588Z,98713.63
2023-04-18T22:18:14.544Z,98708.98
2023-04-18T22:23:21.876Z,98704.17
2023-04-18T22:28:29.572Z,98704.01
2023-04-18T22:33:36.790Z,98695.89
2023-04-18T22:38:43.907Z,98690.52
2023-04-18T22:43:51.052Z,98685.08
2023-04-18T22:48:58.618Z,98678.37
2023-04-18T22:54:05.829Z,98671.98
2023-04-18T22:59:13.098Z,98666.31
2023-04-18T23:04:20.468Z,98655.82
2023-04-18T23:09:28.106Z,98649.98
2023-04-18T23:14:35.499Z,98646.52
2023-04-18T23:19:42.778Z,98640.92
2023-04-18T23:24:49.780Z,98628.39
2023-04-18T23:29:56.842Z,98624.99
2023-04-18T23:35:04.735Z,98613.96
2023-04-18T23:40:12.351Z,98605.52
2023-04-18T23:45:19.891Z,98599.31
2023-04-18T23:50:27.565Z,98593.86
2023-04-18T23:55:34.946Z,98585.19
